sensor_id;sensor_type;location;lat;lon;timestamp;P1;durP1;ratioP1;P2;durP2;ratioP2
59193;SDS011;44967;48.598;15.650;2023-05-10T00:00:13;3.92;;;2.75;;
59193;SDS011;44967;48.598;15.650;2023-05-10T00:02:39;2.97;;;2.58;;
59193;SDS011;44967;48.598;15.650;2023-05-10T00:05:05;2.75;;;2.55;;
59193;SDS011;44967;48.598;15.650;2023-05-10T00:07:32;3.53;;;2.50;;
59193;SDS011;44967;48.598;15.650;2023-05-10T00:09:58;2.67;;;2.35;;
59193;SDS011;44967;48.598;15.650;2023-05-10T00:12:23;4.88;;;2.60;;
59193;SDS011;44967;48.598;15.650;2023-05-10T00:14:49;2.97;;;2.38;;
59193;SDS011;44967;48.598;15.650;2023-05-10T00:17:15;2.55;;;2.15;;
59193;SDS011;44967;48.598;15.650;2023-05-10T00:19:41;3.90;;;2.40;;
59193;SDS011;44967;48.598;15.650;2023-05-10T00:22:07;5.82;;;3.03;;
59193;SDS011;44967;48.598;15.650;2023-05-10T00:24:32;2.90;;;2.42;;
59193;SDS011;44967;48.598;15.650;2023-05-10T00:26:58;3.53;;;2.60;;
59193;SDS011;44967;48.598;15.650;2023-05-10T00:29:23;2.70;;;2.20;;
59193;SDS011;44967;48.598;15.650;2023-05-10T00:31:49;3.50;;;2.03;;
59193;SDS011;44967;48.598;15.650;2023-05-10T00:34:15;2.80;;;2.13;;
59193;SDS011;44967;48.598;15.650;2023-05-10T00:36:40;2.53;;;2.25;;
59193;SDS011;44967;48.598;15.650;2023-05-10T00:39:06;2.88;;;2.40;;
59193;SDS011;44967;48.598;15.650;2023-05-10T00:41:33;2.60;;;2.33;;
59193;SDS011;44967;48.598;15.650;2023-05-10T00:43:58;6.60;;;2.58;;
59193;SDS011;44967;48.598;15.650;2023-05-10T00:46:24;3.83;;;2.45;;
59193;SDS011;44967;48.598;15.650;2023-05-10T00:48:51;2.45;;;2.25;;
59193;SDS011;44967;48.598;15.650;2023-05-10T00:51:17;3.25;;;2.30;;
59193;SDS011;44967;48.598;15.650;2023-05-10T00:53:43;2.97;;;2.25;;
59193;SDS011;44967;48.598;15.650;2023-05-10T00:56:11;3.22;;;2.40;;
59193;SDS011;44967;48.598;15.650;2023-05-10T00:58:38;2.83;;;2.10;;
59193;SDS011;44967;48.598;15.650;2023-05-10T01:01:05;3.25;;;2.40;;
59193;SDS011;44967;48.598;15.650;2023-05-10T01:03:32;3.28;;;2.55;;
59193;SDS011;44967;48.598;15.650;2023-05-10T01:05:57;5.65;;;2.88;;
59193;SDS011;44967;48.598;15.650;2023-05-10T01:08:23;3.25;;;2.25;;
59193;SDS011;44967;48.598;15.650;2023-05-10T01:10:50;4.70;;;2.70;;
59193;SDS011;44967;48.598;15.650;2023-05-10T01:13:23;3.55;;;2.40;;
59193;SDS011;44967;48.598;15.650;2023-05-10T01:15:58;2.75;;;2.05;;
59193;SDS011;44967;48.598;15.650;2023-05-10T01:18:27;2.55;;;2.20;;
59193;SDS011;44967;48.598;15.650;2023-05-10T01:21:19;3.13;;;2.22;;
59193;SDS011;44967;48.598;15.650;2023-05-10T01:32:20;5.68;;;2.70;;
59193;SDS011;44967;48.598;15.650;2023-05-10T01:37:40;2.35;;;2.15;;
59193;SDS011;44967;48.598;15.650;2023-05-10T01:40:23;2.75;;;2.20;;
59193;SDS011;44967;48.598;15.650;2023-05-10T01:43:11;4.30;;;2.53;;
59193;SDS011;44967;48.598;15.650;2023-05-10T01:45:47;4.85;;;2.85;;
59193;SDS011;44967;48.598;15.650;2023-05-10T01:48:15;3.72;;;1.90;;
59193;SDS011;44967;48.598;15.650;2023-05-10T01:50:45;4.50;;;2.25;;
59193;SDS011;44967;48.598;15.650;2023-05-10T01:53:12;4.15;;;2.75;;
59193;SDS011;44967;48.598;15.650;2023-05-10T01:55:43;3.03;;;2.35;;
59193;SDS011;44967;48.598;15.650;2023-05-10T01:58:17;2.40;;;2.20;;
59193;SDS011;44967;48.598;15.650;2023-05-10T02:00:47;2.30;;;2.10;;
59193;SDS011;44967;48.598;15.650;2023-05-10T02:03:14;4.55;;;2.25;;
59193;SDS011;44967;48.598;15.650;2023-05-10T02:05:41;3.05;;;2.58;;
59193;SDS011;44967;48.598;15.650;2023-05-10T02:08:10;4.68;;;2.40;;
59193;SDS011;44967;48.598;15.650;2023-05-10T02:10:38;2.50;;;2.30;;
59193;SDS011;44967;48.598;15.650;2023-05-10T02:13:05;2.97;;;2.67;;
59193;SDS011;44967;48.598;15.650;2023-05-10T02:15:33;2.88;;;2.30;;
59193;SDS011;44967;48.598;15.650;2023-05-10T02:18:01;2.78;;;2.28;;
59193;SDS011;44967;48.598;15.650;2023-05-10T02:20:29;4.65;;;3.03;;
59193;SDS011;44967;48.598;15.650;2023-05-10T02:22:57;2.95;;;2.40;;
59193;SDS011;44967;48.598;15.650;2023-05-10T02:25:24;3.92;;;2.28;;
59193;SDS011;44967;48.598;15.650;2023-05-10T02:27:52;3.88;;;2.35;;
59193;SDS011;44967;48.598;15.650;2023-05-10T02:30:21;3.50;;;2.42;;
59193;SDS011;44967;48.598;15.650;2023-05-10T02:32:48;2.35;;;2.15;;
59193;SDS011;44967;48.598;15.650;2023-05-10T02:35:15;5.40;;;2.38;;
59193;SDS011;44967;48.598;15.650;2023-05-10T02:37:45;4.15;;;2.42;;
59193;SDS011;44967;48.598;15.650;2023-05-10T02:40:11;2.95;;;2.10;;
59193;SDS011;44967;48.598;15.650;2023-05-10T02:42:39;3.05;;;2.20;;
59193;SDS011;44967;48.598;15.650;2023-05-10T02:45:08;3.67;;;2.08;;
59193;SDS011;44967;48.598;15.650;2023-05-10T02:47:37;3.88;;;2.60;;
59193;SDS011;44967;48.598;15.650;2023-05-10T02:50:03;2.60;;;2.05;;
59193;SDS011;44967;48.598;15.650;2023-05-10T02:52:30;2.95;;;2.20;;
59193;SDS011;44967;48.598;15.650;2023-05-10T02:55:04;4.90;;;2.60;;
59193;SDS011;44967;48.598;15.650;2023-05-10T02:57:32;2.65;;;2.25;;
59193;SDS011;44967;48.598;15.650;2023-05-10T02:59:59;3.67;;;2.30;;
59193;SDS011;44967;48.598;15.650;2023-05-10T03:02:26;3.53;;;2.25;;
59193;SDS011;44967;48.598;15.650;2023-05-10T03:04:52;2.58;;;2.22;;
59193;SDS011;44967;48.598;15.650;2023-05-10T03:07:18;3.28;;;2.55;;
59193;SDS011;44967;48.598;15.650;2023-05-10T03:09:47;4.03;;;2.30;;
59193;SDS011;44967;48.598;15.650;2023-05-10T03:15:20;3.35;;;2.47;;
59193;SDS011;44967;48.598;15.650;2023-05-10T03:17:55;3.42;;;2.35;;
59193;SDS011;44967;48.598;15.650;2023-05-10T03:20:38;3.03;;;2.72;;
59193;SDS011;44967;48.598;15.650;2023-05-10T03:23:11;2.60;;;2.35;;
59193;SDS011;44967;48.598;15.650;2023-05-10T03:25:39;2.78;;;2.30;;
59193;SDS011;44967;48.598;15.650;2023-05-10T03:28:06;3.38;;;2.08;;
59193;SDS011;44967;48.598;15.650;2023-05-10T03:30:32;3.40;;;2.75;;
59193;SDS011;44967;48.598;15.650;2023-05-10T03:33:06;3.97;;;2.20;;
59193;SDS011;44967;48.598;15.650;2023-05-10T03:35:31;3.05;;;2.25;;
59193;SDS011;44967;48.598;15.650;2023-05-10T03:37:57;4.25;;;2.20;;
59193;SDS011;44967;48.598;15.650;2023-05-10T03:40:23;3.20;;;2.28;;
59193;SDS011;44967;48.598;15.650;2023-05-10T03:42:49;3.40;;;2.10;;
59193;SDS011;44967;48.598;15.650;2023-05-10T03:45:15;3.72;;;2.22;;
59193;SDS011;44967;48.598;15.650;2023-05-10T03:47:41;2.42;;;2.10;;
59193;SDS011;44967;48.598;15.650;2023-05-10T03:50:06;3.22;;;2.40;;
59193;SDS011;44967;48.598;15.650;2023-05-10T03:52:33;2.90;;;2.13;;
59193;SDS011;44967;48.598;15.650;2023-05-10T03:54:59;3.83;;;2.67;;
59193;SDS011;44967;48.598;15.650;2023-05-10T03:57:24;4.50;;;1.98;;
59193;SDS011;44967;48.598;15.650;2023-05-10T03:59:50;3.03;;;2.40;;
59193;SDS011;44967;48.598;15.650;2023-05-10T04:02:15;2.95;;;2.38;;
59193;SDS011;44967;48.598;15.650;2023-05-10T04:04:41;3.25;;;2.50;;
59193;SDS011;44967;48.598;15.650;2023-05-10T04:07:07;3.25;;;2.60;;
59193;SDS011;44967;48.598;15.650;2023-05-10T04:09:32;3.85;;;2.38;;
59193;SDS011;44967;48.598;15.650;2023-05-10T04:11:58;8.70;;;4.53;;
59193;SDS011;44967;48.598;15.650;2023-05-10T04:14:24;10.60;;;5.82;;
59193;SDS011;44967;48.598;15.650;2023-05-10T04:16:53;13.10;;;6.25;;
59193;SDS011;44967;48.598;15.650;2023-05-10T04:19:19;9.35;;;4.93;;
59193;SDS011;44967;48.598;15.650;2023-05-10T04:21:45;5.43;;;3.42;;
59193;SDS011;44967;48.598;15.650;2023-05-10T04:24:10;7.38;;;3.75;;
59193;SDS011;44967;48.598;15.650;2023-05-10T04:26:37;5.47;;;4.13;;
59193;SDS011;44967;48.598;15.650;2023-05-10T04:29:02;4.75;;;3.33;;
59193;SDS011;44967;48.598;15.650;2023-05-10T04:31:28;3.38;;;2.63;;
59193;SDS011;44967;48.598;15.650;2023-05-10T04:33:54;4.03;;;2.58;;
59193;SDS011;44967;48.598;15.650;2023-05-10T04:36:19;3.63;;;2.80;;
59193;SDS011;44967;48.598;15.650;2023-05-10T04:38:46;5.35;;;3.83;;
59193;SDS011;44967;48.598;15.650;2023-05-10T04:41:11;5.43;;;3.42;;
59193;SDS011;44967;48.598;15.650;2023-05-10T04:43:40;4.53;;;3.08;;
59193;SDS011;44967;48.598;15.650;2023-05-10T04:46:05;4.30;;;2.72;;
59193;SDS011;44967;48.598;15.650;2023-05-10T04:48:32;3.55;;;2.50;;
59193;SDS011;44967;48.598;15.650;2023-05-10T04:50:58;6.72;;;3.08;;
59193;SDS011;44967;48.598;15.650;2023-05-10T04:53:24;5.50;;;3.03;;
59193;SDS011;44967;48.598;15.650;2023-05-10T04:55:50;4.05;;;2.88;;
59193;SDS011;44967;48.598;15.650;2023-05-10T04:58:16;3.72;;;3.05;;
59193;SDS011;44967;48.598;15.650;2023-05-10T05:00:41;3.97;;;3.00;;
59193;SDS011;44967;48.598;15.650;2023-05-10T05:03:07;6.35;;;3.88;;
59193;SDS011;44967;48.598;15.650;2023-05-10T05:05:33;4.65;;;3.30;;
59193;SDS011;44967;48.598;15.650;2023-05-10T05:07:59;7.40;;;3.65;;
59193;SDS011;44967;48.598;15.650;2023-05-10T05:10:24;5.40;;;3.50;;
59193;SDS011;44967;48.598;15.650;2023-05-10T05:12:50;5.45;;;3.42;;
59193;SDS011;44967;48.598;15.650;2023-05-10T05:15:16;4.30;;;3.10;;
59193;SDS011;44967;48.598;15.650;2023-05-10T05:17:42;7.03;;;4.20;;
59193;SDS011;44967;48.598;15.650;2023-05-10T05:20:08;7.93;;;4.00;;
59193;SDS011;44967;48.598;15.650;2023-05-10T05:22:35;4.95;;;3.20;;
59193;SDS011;44967;48.598;15.650;2023-05-10T05:25:02;7.97;;;4.60;;
59193;SDS011;44967;48.598;15.650;2023-05-10T05:27:28;13.20;;;6.05;;
59193;SDS011;44967;48.598;15.650;2023-05-10T05:29:55;9.23;;;5.32;;
59193;SDS011;44967;48.598;15.650;2023-05-10T05:32:21;6.50;;;4.80;;
59193;SDS011;44967;48.598;15.650;2023-05-10T05:34:47;9.52;;;4.10;;
59193;SDS011;44967;48.598;15.650;2023-05-10T05:37:14;7.05;;;3.88;;
59193;SDS011;44967;48.598;15.650;2023-05-10T05:39:40;10.95;;;6.68;;
59193;SDS011;44967;48.598;15.650;2023-05-10T05:42:06;14.13;;;9.13;;
59193;SDS011;44967;48.598;15.650;2023-05-10T05:44:32;10.75;;;6.55;;
59193;SDS011;44967;48.598;15.650;2023-05-10T05:46:58;6.03;;;4.90;;
59193;SDS011;44967;48.598;15.650;2023-05-10T05:49:23;4.88;;;3.70;;
59193;SDS011;44967;48.598;15.650;2023-05-10T05:51:49;10.55;;;3.92;;
59193;SDS011;44967;48.598;15.650;2023-05-10T05:54:19;5.55;;;3.83;;
59193;SDS011;44967;48.598;15.650;2023-05-10T05:56:45;7.57;;;3.70;;
59193;SDS011;44967;48.598;15.650;2023-05-10T05:59:10;12.63;;;4.13;;
59193;SDS011;44967;48.598;15.650;2023-05-10T06:01:36;10.38;;;4.50;;
59193;SDS011;44967;48.598;15.650;2023-05-10T06:04:02;5.63;;;3.95;;
59193;SDS011;44967;48.598;15.650;2023-05-10T06:06:28;7.03;;;3.53;;
59193;SDS011;44967;48.598;15.650;2023-05-10T06:08:53;4.30;;;3.30;;
59193;SDS011;44967;48.598;15.650;2023-05-10T06:11:19;5.05;;;3.75;;
59193;SDS011;44967;48.598;15.650;2023-05-10T06:13:46;6.47;;;3.42;;
59193;SDS011;44967;48.598;15.650;2023-05-10T06:16:12;5.90;;;3.28;;
59193;SDS011;44967;48.598;15.650;2023-05-10T06:18:38;4.22;;;2.92;;
59193;SDS011;44967;48.598;15.650;2023-05-10T06:21:04;5.00;;;3.17;;
59193;SDS011;44967;48.598;15.650;2023-05-10T06:23:30;5.00;;;2.95;;
59193;SDS011;44967;48.598;15.650;2023-05-10T06:25:56;4.65;;;3.05;;
59193;SDS011;44967;48.598;15.650;2023-05-10T06:28:22;6.03;;;2.80;;
59193;SDS011;44967;48.598;15.650;2023-05-10T06:30:47;3.55;;;2.83;;
59193;SDS011;44967;48.598;15.650;2023-05-10T06:33:13;3.88;;;2.70;;
59193;SDS011;44967;48.598;15.650;2023-05-10T06:35:39;3.60;;;2.67;;
59193;SDS011;44967;48.598;15.650;2023-05-10T06:38:04;3.88;;;2.67;;
59193;SDS011;44967;48.598;15.650;2023-05-10T06:40:31;4.50;;;2.72;;
59193;SDS011;44967;48.598;15.650;2023-05-10T06:42:56;4.13;;;2.20;;
59193;SDS011;44967;48.598;15.650;2023-05-10T06:45:22;2.83;;;2.30;;
59193;SDS011;44967;48.598;15.650;2023-05-10T06:47:47;3.35;;;2.75;;
59193;SDS011;44967;48.598;15.650;2023-05-10T06:50:13;7.68;;;2.83;;
59193;SDS011;44967;48.598;15.650;2023-05-10T06:52:39;4.35;;;2.90;;
59193;SDS011;44967;48.598;15.650;2023-05-10T06:55:05;2.95;;;2.20;;
59193;SDS011;44967;48.598;15.650;2023-05-10T06:57:31;2.67;;;2.38;;
59193;SDS011;44967;48.598;15.650;2023-05-10T06:59:58;7.82;;;2.40;;
59193;SDS011;44967;48.598;15.650;2023-05-10T07:02:24;2.92;;;2.45;;
59193;SDS011;44967;48.598;15.650;2023-05-10T07:04:50;3.85;;;2.45;;
59193;SDS011;44967;48.598;15.650;2023-05-10T07:07:17;3.83;;;2.60;;
59193;SDS011;44967;48.598;15.650;2023-05-10T07:09:42;3.67;;;2.50;;
59193;SDS011;44967;48.598;15.650;2023-05-10T07:12:08;3.25;;;2.70;;
59193;SDS011;44967;48.598;15.650;2023-05-10T07:14:34;8.57;;;2.30;;
59193;SDS011;44967;48.598;15.650;2023-05-10T07:17:00;3.33;;;2.10;;
59193;SDS011;44967;48.598;15.650;2023-05-10T07:19:25;4.63;;;2.75;;
59193;SDS011;44967;48.598;15.650;2023-05-10T07:21:51;2.75;;;2.45;;
59193;SDS011;44967;48.598;15.650;2023-05-10T07:24:17;3.67;;;2.60;;
59193;SDS011;44967;48.598;15.650;2023-05-10T07:26:43;4.10;;;2.30;;
59193;SDS011;44967;48.598;15.650;2023-05-10T07:29:09;3.00;;;2.60;;
59193;SDS011;44967;48.598;15.650;2023-05-10T07:31:35;2.88;;;2.40;;
59193;SDS011;44967;48.598;15.650;2023-05-10T07:34:00;4.28;;;2.33;;
59193;SDS011;44967;48.598;15.650;2023-05-10T07:36:26;6.50;;;2.88;;
59193;SDS011;44967;48.598;15.650;2023-05-10T07:38:52;6.45;;;2.60;;
59193;SDS011;44967;48.598;15.650;2023-05-10T07:41:21;4.55;;;2.10;;
59193;SDS011;44967;48.598;15.650;2023-05-10T07:43:47;2.55;;;2.35;;
59193;SDS011;44967;48.598;15.650;2023-05-10T07:46:13;6.90;;;2.30;;
59193;SDS011;44967;48.598;15.650;2023-05-10T07:48:40;3.67;;;2.20;;
59193;SDS011;44967;48.598;15.650;2023-05-10T07:51:07;3.33;;;2.40;;
59193;SDS011;44967;48.598;15.650;2023-05-10T07:53:34;6.50;;;2.80;;
59193;SDS011;44967;48.598;15.650;2023-05-10T07:56:19;5.85;;;2.90;;
59193;SDS011;44967;48.598;15.650;2023-05-10T07:58:50;2.70;;;2.08;;
59193;SDS011;44967;48.598;15.650;2023-05-10T08:01:16;3.90;;;2.28;;
59193;SDS011;44967;48.598;15.650;2023-05-10T08:03:42;4.68;;;2.38;;
59193;SDS011;44967;48.598;15.650;2023-05-10T08:06:08;5.05;;;2.53;;
59193;SDS011;44967;48.598;15.650;2023-05-10T08:08:34;3.35;;;2.53;;
59193;SDS011;44967;48.598;15.650;2023-05-10T08:10:59;3.88;;;2.25;;
59193;SDS011;44967;48.598;15.650;2023-05-10T08:13:25;3.60;;;2.40;;
59193;SDS011;44967;48.598;15.650;2023-05-10T08:15:51;5.00;;;2.20;;
59193;SDS011;44967;48.598;15.650;2023-05-10T08:18:18;4.63;;;2.40;;
59193;SDS011;44967;48.598;15.650;2023-05-10T08:20:44;4.80;;;2.38;;
59193;SDS011;44967;48.598;15.650;2023-05-10T08:23:13;4.82;;;2.38;;
59193;SDS011;44967;48.598;15.650;2023-05-10T08:25:38;5.13;;;2.67;;
59193;SDS011;44967;48.598;15.650;2023-05-10T08:28:04;3.00;;;2.22;;
59193;SDS011;44967;48.598;15.650;2023-05-10T08:30:30;2.65;;;2.13;;
59193;SDS011;44967;48.598;15.650;2023-05-10T08:32:58;3.40;;;2.58;;
59193;SDS011;44967;48.598;15.650;2023-05-10T08:35:24;3.55;;;2.22;;
59193;SDS011;44967;48.598;15.650;2023-05-10T08:37:50;3.80;;;2.42;;
59193;SDS011;44967;48.598;15.650;2023-05-10T08:40:17;5.78;;;2.25;;
59193;SDS011;44967;48.598;15.650;2023-05-10T08:42:47;2.45;;;1.90;;
59193;SDS011;44967;48.598;15.650;2023-05-10T08:45:31;4.03;;;1.90;;
59193;SDS011;44967;48.598;15.650;2023-05-10T08:48:02;4.50;;;2.25;;
59193;SDS011;44967;48.598;15.650;2023-05-10T08:50:30;5.85;;;2.10;;
59193;SDS011;44967;48.598;15.650;2023-05-10T08:52:57;3.40;;;2.17;;
59193;SDS011;44967;48.598;15.650;2023-05-10T08:55:25;2.65;;;1.67;;
59193;SDS011;44967;48.598;15.650;2023-05-10T08:57:51;2.50;;;2.00;;
59193;SDS011;44967;48.598;15.650;2023-05-10T09:00:17;3.28;;;1.92;;
59193;SDS011;44967;48.598;15.650;2023-05-10T09:02:44;2.88;;;1.88;;
59193;SDS011;44967;48.598;15.650;2023-05-10T09:05:12;3.60;;;1.58;;
59193;SDS011;44967;48.598;15.650;2023-05-10T09:07:40;3.58;;;1.80;;
59193;SDS011;44967;48.598;15.650;2023-05-10T09:10:06;3.38;;;1.92;;
59193;SDS011;44967;48.598;15.650;2023-05-10T09:12:32;2.72;;;1.60;;
59193;SDS011;44967;48.598;15.650;2023-05-10T09:14:58;4.25;;;1.60;;
59193;SDS011;44967;48.598;15.650;2023-05-10T09:17:25;1.73;;;1.50;;
59193;SDS011;44967;48.598;15.650;2023-05-10T09:19:56;1.77;;;1.60;;
59193;SDS011;44967;48.598;15.650;2023-05-10T09:22:26;1.50;;;1.40;;
59193;SDS011;44967;48.598;15.650;2023-05-10T09:27:41;2.30;;;1.55;;
59193;SDS011;44967;48.598;15.650;2023-05-10T09:30:10;5.47;;;1.50;;
59193;SDS011;44967;48.598;15.650;2023-05-10T09:32:42;3.10;;;1.85;;
59193;SDS011;44967;48.598;15.650;2023-05-10T09:35:12;2.08;;;1.50;;
59193;SDS011;44967;48.598;15.650;2023-05-10T09:37:40;2.63;;;1.30;;
59193;SDS011;44967;48.598;15.650;2023-05-10T09:40:11;1.52;;;1.30;;
59193;SDS011;44967;48.598;15.650;2023-05-10T09:42:38;2.17;;;1.80;;
59193;SDS011;44967;48.598;15.650;2023-05-10T09:45:04;2.83;;;1.40;;
59193;SDS011;44967;48.598;15.650;2023-05-10T09:47:34;2.92;;;1.52;;
59193;SDS011;44967;48.598;15.650;2023-05-10T09:50:01;4.93;;;1.63;;
59193;SDS011;44967;48.598;15.650;2023-05-10T09:52:29;2.25;;;1.50;;
59193;SDS011;44967;48.598;15.650;2023-05-10T09:54:56;5.90;;;2.03;;
59193;SDS011;44967;48.598;15.650;2023-05-10T09:57:22;3.83;;;1.30;;
59193;SDS011;44967;48.598;15.650;2023-05-10T09:59:49;2.95;;;1.50;;
59193;SDS011;44967;48.598;15.650;2023-05-10T10:02:15;2.10;;;1.50;;
59193;SDS011;44967;48.598;15.650;2023-05-10T10:04:42;1.98;;;1.40;;
59193;SDS011;44967;48.598;15.650;2023-05-10T10:07:08;2.45;;;1.40;;
59193;SDS011;44967;48.598;15.650;2023-05-10T10:09:34;3.40;;;1.60;;
59193;SDS011;44967;48.598;15.650;2023-05-10T10:12:00;1.90;;;1.40;;
59193;SDS011;44967;48.598;15.650;2023-05-10T10:14:27;2.97;;;1.40;;
59193;SDS011;44967;48.598;15.650;2023-05-10T10:16:54;3.92;;;1.65;;
59193;SDS011;44967;48.598;15.650;2023-05-10T10:19:21;1.30;;;1.20;;
59193;SDS011;44967;48.598;15.650;2023-05-10T10:21:47;3.88;;;1.45;;
59193;SDS011;44967;48.598;15.650;2023-05-10T10:24:14;1.60;;;1.50;;
59193;SDS011;44967;48.598;15.650;2023-05-10T10:26:41;1.60;;;1.50;;
59193;SDS011;44967;48.598;15.650;2023-05-10T10:34:25;8.73;;;1.83;;
59193;SDS011;44967;48.598;15.650;2023-05-10T10:36:53;3.50;;;1.45;;
59193;SDS011;44967;48.598;15.650;2023-05-10T10:39:20;2.13;;;1.52;;
59193;SDS011;44967;48.598;15.650;2023-05-10T10:41:49;4.55;;;2.15;;
59193;SDS011;44967;48.598;15.650;2023-05-10T10:47:03;3.17;;;1.80;;
59193;SDS011;44967;48.598;15.650;2023-05-10T10:54:52;2.15;;;1.77;;
59193;SDS011;44967;48.598;15.650;2023-05-10T10:57:23;2.90;;;1.80;;
59193;SDS011;44967;48.598;15.650;2023-05-10T10:59:49;3.13;;;2.00;;
59193;SDS011;44967;48.598;15.650;2023-05-10T11:02:34;4.22;;;1.60;;
59193;SDS011;44967;48.598;15.650;2023-05-10T11:07:56;4.07;;;2.10;;
59193;SDS011;44967;48.598;15.650;2023-05-10T11:10:23;2.33;;;2.13;;
59193;SDS011;44967;48.598;15.650;2023-05-10T11:12:58;4.20;;;1.70;;
59193;SDS011;44967;48.598;15.650;2023-05-10T11:15:31;3.83;;;2.22;;
59193;SDS011;44967;48.598;15.650;2023-05-10T11:17:58;5.55;;;1.90;;
59193;SDS011;44967;48.598;15.650;2023-05-10T11:20:27;2.67;;;2.03;;
59193;SDS011;44967;48.598;15.650;2023-05-10T11:23:00;1.90;;;1.48;;
59193;SDS011;44967;48.598;15.650;2023-05-10T11:25:41;2.20;;;2.00;;
59193;SDS011;44967;48.598;15.650;2023-05-10T11:28:12;2.78;;;1.67;;
59193;SDS011;44967;48.598;15.650;2023-05-10T11:30:38;3.63;;;1.88;;
59193;SDS011;44967;48.598;15.650;2023-05-10T11:33:05;4.13;;;2.20;;
59193;SDS011;44967;48.598;15.650;2023-05-10T11:35:38;4.07;;;1.80;;
59193;SDS011;44967;48.598;15.650;2023-05-10T11:38:06;4.10;;;2.38;;
59193;SDS011;44967;48.598;15.650;2023-05-10T11:40:32;2.72;;;1.98;;
59193;SDS011;44967;48.598;15.650;2023-05-10T11:42:58;5.57;;;2.47;;
59193;SDS011;44967;48.598;15.650;2023-05-10T11:45:24;4.78;;;1.98;;
59193;SDS011;44967;48.598;15.650;2023-05-10T11:47:51;2.90;;;2.15;;
59193;SDS011;44967;48.598;15.650;2023-05-10T11:50:17;3.15;;;1.60;;
59193;SDS011;44967;48.598;15.650;2023-05-10T11:52:43;2.80;;;2.13;;
59193;SDS011;44967;48.598;15.650;2023-05-10T11:55:08;5.90;;;2.55;;
59193;SDS011;44967;48.598;15.650;2023-05-10T11:57:34;2.55;;;1.98;;
59193;SDS011;44967;48.598;15.650;2023-05-10T12:00:03;2.03;;;1.92;;
59193;SDS011;44967;48.598;15.650;2023-05-10T12:02:30;2.75;;;1.77;;
59193;SDS011;44967;48.598;15.650;2023-05-10T12:04:56;3.17;;;2.03;;
59193;SDS011;44967;48.598;15.650;2023-05-10T12:07:22;5.78;;;2.22;;
59193;SDS011;44967;48.598;15.650;2023-05-10T12:10:30;3.63;;;2.05;;
59193;SDS011;44967;48.598;15.650;2023-05-10T12:12:46;4.07;;;1.65;;
59193;SDS011;44967;48.598;15.650;2023-05-10T12:15:23;2.97;;;1.70;;
59193;SDS011;44967;48.598;15.650;2023-05-10T12:17:50;1.75;;;1.65;;
59193;SDS011;44967;48.598;15.650;2023-05-10T12:22:47;1.40;;;1.30;;
59193;SDS011;44967;48.598;15.650;2023-05-10T12:25:15;7.45;;;2.00;;
59193;SDS011;44967;48.598;15.650;2023-05-10T12:27:47;2.88;;;1.77;;
59193;SDS011;44967;48.598;15.650;2023-05-10T12:30:24;2.22;;;1.50;;
59193;SDS011;44967;48.598;15.650;2023-05-10T12:32:51;4.13;;;1.63;;
59193;SDS011;44967;48.598;15.650;2023-05-10T12:35:17;3.20;;;1.70;;
59193;SDS011;44967;48.598;15.650;2023-05-10T12:37:47;3.13;;;1.50;;
59193;SDS011;44967;48.598;15.650;2023-05-10T12:40:13;4.25;;;1.50;;
59193;SDS011;44967;48.598;15.650;2023-05-10T12:42:39;1.65;;;1.23;;
59193;SDS011;44967;48.598;15.650;2023-05-10T12:45:05;2.15;;;1.55;;
59193;SDS011;44967;48.598;15.650;2023-05-10T12:47:34;3.03;;;1.75;;
59193;SDS011;44967;48.598;15.650;2023-05-10T12:50:00;2.70;;;1.60;;
59193;SDS011;44967;48.598;15.650;2023-05-10T12:52:31;3.05;;;1.20;;
59193;SDS011;44967;48.598;15.650;2023-05-10T12:55:00;4.03;;;1.90;;
59193;SDS011;44967;48.598;15.650;2023-05-10T12:57:26;7.20;;;1.55;;
59193;SDS011;44967;48.598;15.650;2023-05-10T12:59:53;3.13;;;1.63;;
59193;SDS011;44967;48.598;15.650;2023-05-10T13:02:19;1.48;;;1.33;;
59193;SDS011;44967;48.598;15.650;2023-05-10T13:04:45;2.92;;;1.35;;
59193;SDS011;44967;48.598;15.650;2023-05-10T13:07:11;2.45;;;1.48;;
59193;SDS011;44967;48.598;15.650;2023-05-10T13:09:37;2.13;;;1.42;;
59193;SDS011;44967;48.598;15.650;2023-05-10T13:12:02;1.70;;;1.33;;
59193;SDS011;44967;48.598;15.650;2023-05-10T13:14:28;5.55;;;1.40;;
59193;SDS011;44967;48.598;15.650;2023-05-10T13:16:55;1.85;;;1.38;;
59193;SDS011;44967;48.598;15.650;2023-05-10T13:19:21;2.63;;;1.60;;
59193;SDS011;44967;48.598;15.650;2023-05-10T13:21:46;3.45;;;1.65;;
59193;SDS011;44967;48.598;15.650;2023-05-10T13:24:12;3.00;;;1.17;;
59193;SDS011;44967;48.598;15.650;2023-05-10T13:26:39;1.30;;;1.20;;
59193;SDS011;44967;48.598;15.650;2023-05-10T13:29:06;1.48;;;1.13;;
59193;SDS011;44967;48.598;15.650;2023-05-10T13:31:32;1.65;;;1.50;;
59193;SDS011;44967;48.598;15.650;2023-05-10T13:33:58;1.70;;;1.27;;
59193;SDS011;44967;48.598;15.650;2023-05-10T13:36:23;2.17;;;1.40;;
59193;SDS011;44967;48.598;15.650;2023-05-10T13:38:49;1.55;;;1.02;;
59193;SDS011;44967;48.598;15.650;2023-05-10T13:41:15;1.15;;;1.00;;
59193;SDS011;44967;48.598;15.650;2023-05-10T13:43:40;1.20;;;1.10;;
59193;SDS011;44967;48.598;15.650;2023-05-10T13:46:06;2.00;;;1.40;;
59193;SDS011;44967;48.598;15.650;2023-05-10T13:48:31;1.30;;;1.20;;
59193;SDS011;44967;48.598;15.650;2023-05-10T13:50:57;1.52;;;1.42;;
59193;SDS011;44967;48.598;15.650;2023-05-10T13:53:22;1.10;;;1.00;;
59193;SDS011;44967;48.598;15.650;2023-05-10T13:55:48;2.92;;;1.45;;
59193;SDS011;44967;48.598;15.650;2023-05-10T13:58:14;0.93;;;0.93;;
59193;SDS011;44967;48.598;15.650;2023-05-10T14:00:39;2.15;;;1.60;;
59193;SDS011;44967;48.598;15.650;2023-05-10T14:03:05;1.45;;;1.30;;
59193;SDS011;44967;48.598;15.650;2023-05-10T14:05:32;1.40;;;1.30;;
59193;SDS011;44967;48.598;15.650;2023-05-10T14:07:57;3.15;;;1.48;;
59193;SDS011;44967;48.598;15.650;2023-05-10T14:10:23;1.60;;;1.48;;
59193;SDS011;44967;48.598;15.650;2023-05-10T14:12:49;1.33;;;1.23;;
59193;SDS011;44967;48.598;15.650;2023-05-10T14:15:15;3.67;;;1.00;;
59193;SDS011;44967;48.598;15.650;2023-05-10T14:17:41;1.70;;;1.20;;
59193;SDS011;44967;48.598;15.650;2023-05-10T14:20:07;3.25;;;1.27;;
59193;SDS011;44967;48.598;15.650;2023-05-10T14:22:33;2.47;;;1.17;;
59193;SDS011;44967;48.598;15.650;2023-05-10T14:24:59;2.33;;;1.10;;
59193;SDS011;44967;48.598;15.650;2023-05-10T14:27:25;2.00;;;1.10;;
59193;SDS011;44967;48.598;15.650;2023-05-10T14:29:52;3.50;;;2.25;;
59193;SDS011;44967;48.598;15.650;2023-05-10T14:32:18;1.42;;;1.25;;
59193;SDS011;44967;48.598;15.650;2023-05-10T14:34:44;1.25;;;1.15;;
59193;SDS011;44967;48.598;15.650;2023-05-10T14:37:10;2.30;;;1.40;;
59193;SDS011;44967;48.598;15.650;2023-05-10T14:39:36;2.40;;;1.20;;
59193;SDS011;44967;48.598;15.650;2023-05-10T14:42:03;1.58;;;1.20;;
59193;SDS011;44967;48.598;15.650;2023-05-10T14:44:29;3.45;;;1.33;;
59193;SDS011;44967;48.598;15.650;2023-05-10T14:46:55;2.65;;;1.20;;
59193;SDS011;44967;48.598;15.650;2023-05-10T14:49:21;1.20;;;1.10;;
59193;SDS011;44967;48.598;15.650;2023-05-10T14:51:48;3.95;;;1.10;;
59193;SDS011;44967;48.598;15.650;2023-05-10T14:54:13;0.90;;;0.90;;
59193;SDS011;44967;48.598;15.650;2023-05-10T14:56:39;1.40;;;0.98;;
59193;SDS011;44967;48.598;15.650;2023-05-10T14:59:06;1.70;;;0.90;;
59193;SDS011;44967;48.598;15.650;2023-05-10T15:01:32;4.93;;;2.33;;
59193;SDS011;44967;48.598;15.650;2023-05-10T15:04:02;1.65;;;1.55;;
59193;SDS011;44967;48.598;15.650;2023-05-10T15:06:32;1.15;;;1.00;;
59193;SDS011;44967;48.598;15.650;2023-05-10T15:09:00;1.98;;;1.08;;